createdAt,value
2023-02-08T00:00:43.473Z,-3.66
2023-02-08T00:03:00.012Z,-3.65
2023-02-08T00:05:16.502Z,-3.65
2023-02-08T00:07:32.824Z,-3.69
2023-02-08T00:09:49.484Z,-3.72
2023-02-08T00:12:05.934Z,-3.74
2023-02-08T00:14:22.360Z,-3.73
2023-02-08T00:16:39.077Z,-3.73
2023-02-08T00:18:55.738Z,-3.77
2023-02-08T00:21:12.060Z,-3.80
2023-02-08T00:23:28.485Z,-3.80
2023-02-08T00:25:44.834Z,-3.83
2023-02-08T00:28:03.314Z,-3.84
2023-02-08T00:30:20.809Z,-3.88
2023-02-08T00:32:37.312Z,-3.90
2023-02-08T00:34:53.723Z,-3.90
2023-02-08T00:37:10.010Z,-3.93
2023-02-08T00:39:26.721Z,-3.95
2023-02-08T00:41:43.024Z,-3.99
2023-02-08T00:44:00.514Z,-4.02
2023-02-08T00:46:17.014Z,-4.03
2023-02-08T00:48:33.705Z,-4.03
2023-02-08T00:50:50.480Z,-4.06
2023-02-08T00:53:06.910Z,-4.07
2023-02-08T00:55:23.258Z,-4.08
2023-02-08T00:57:39.717Z,-4.09
2023-02-08T00:59:56.177Z,-4.09
2023-02-08T01:02:12.529Z,-4.06
2023-02-08T01:04:29.243Z,-4.09
2023-02-08T01:06:45.905Z,-4.13
2023-02-08T01:09:02.398Z,-4.17
2023-02-08T01:11:18.965Z,-4.18
2023-02-08T01:13:36.366Z,-4.19
2023-02-08T01:15:53.097Z,-4.20
2023-02-08T01:18:09.770Z,-4.20
2023-02-08T01:20:26.477Z,-4.19
2023-02-08T01:22:43.005Z,-4.20
2023-02-08T01:24:59.524Z,-4.20
2023-02-08T01:27:16.082Z,-4.24
2023-02-08T01:29:33.381Z,-4.25
2023-02-08T01:31:53.165Z,-4.25
2023-02-08T01:34:12.703Z,-4.27
2023-02-08T01:36:31.316Z,-4.30
2023-02-08T01:38:47.988Z,-4.31
2023-02-08T01:41:04.426Z,-4.34
2023-02-08T01:43:20.838Z,-4.35
2023-02-08T01:45:37.296Z,-4.37
2023-02-08T01:47:53.635Z,-4.37
2023-02-08T01:50:09.907Z,-4.41
2023-02-08T01:52:26.366Z,-4.42
2023-02-08T01:54:42.823Z,-4.43
2023-02-08T01:56:59.199Z,-4.43
2023-02-08T01:59:15.640Z,-4.46
2023-02-08T02:01:31.989Z,-4.46
2023-02-08T02:03:48.729Z,-4.47
2023-02-08T02:06:05.182Z,-4.49
2023-02-08T02:08:21.638Z,-4.49
2023-02-08T02:10:38.134Z,-4.52
2023-02-08T02:12:55.126Z,-4.54
2023-02-08T02:15:11.446Z,-4.54
2023-02-08T02:17:28.174Z,-4.56
2023-02-08T02:19:44.590Z,-4.56
2023-02-08T02:22:01.038Z,-4.58
2023-02-08T02:24:17.359Z,-4.59
2023-02-08T02:26:33.846Z,-4.60
2023-02-08T02:28:50.502Z,-4.62
2023-02-08T02:31:07.335Z,-4.65
2023-02-08T02:33:23.725Z,-4.66
2023-02-08T02:35:40.152Z,-4.66
2023-02-08T02:37:56.626Z,-4.67
2023-02-08T02:40:12.947Z,-4.69
2023-02-08T02:42:29.619Z,-4.70
2023-02-08T02:44:46.256Z,-4.71
2023-02-08T02:47:03.030Z,-4.71
2023-02-08T02:49:19.602Z,-4.73
2023-02-08T02:51:36.032Z,-4.73
2023-02-08T02:53:52.685Z,-4.75
2023-02-08T02:56:09.361Z,-4.77
2023-02-08T02:58:25.996Z,-4.79
2023-02-08T03:00:42.388Z,-4.80
2023-02-08T03:02:58.962Z,-4.80
2023-02-08T03:05:15.239Z,-4.82
2023-02-08T03:07:31.936Z,-4.82
2023-02-08T03:09:48.667Z,-4.84
2023-02-08T03:12:05.146Z,-4.84
2023-02-08T03:14:21.776Z,-4.86
2023-02-08T03:16:38.164Z,-4.87
2023-02-08T03:18:54.879Z,-4.89
2023-02-08T03:21:11.262Z,-4.90
2023-02-08T03:23:27.689Z,-4.90
2023-02-08T03:25:44.126Z,-4.92
2023-02-08T03:28:00.909Z,-4.93
2023-02-08T03:30:17.324Z,-4.91
2023-02-08T03:32:33.851Z,-4.93
2023-02-08T03:34:50.281Z,-4.92
2023-02-08T03:37:06.699Z,-4.94
2023-02-08T03:39:23.368Z,-4.95
2023-02-08T03:41:39.684Z,-4.97
2023-02-08T03:43:56.100Z,-4.99
2023-02-08T03:46:12.552Z,-5.01
2023-02-08T03:48:29.052Z,-5.03
2023-02-08T03:50:45.528Z,-5.04
2023-02-08T03:53:01.987Z,-5.03
2023-02-08T03:55:18.260Z,-5.02
2023-02-08T03:57:34.696Z,-5.04
2023-02-08T03:59:51.072Z,-5.05
2023-02-08T04:02:07.518Z,-5.06
2023-02-08T04:04:23.922Z,-5.06
2023-02-08T04:06:40.328Z,-5.06
2023-02-08T04:08:56.850Z,-5.07
2023-02-08T04:11:13.337Z,-5.11
2023-02-08T04:13:29.721Z,-5.11
2023-02-08T04:15:46.085Z,-5.12
2023-02-08T04:18:02.403Z,-5.13
2023-02-08T04:20:18.846Z,-5.13
2023-02-08T04:22:35.189Z,-5.14
2023-02-08T04:24:51.855Z,-5.16
2023-02-08T04:27:08.258Z,-5.16
2023-02-08T04:29:24.767Z,-5.17
2023-02-08T04:31:41.304Z,-5.19
2023-02-08T04:33:57.890Z,-5.21
2023-02-08T04:36:14.281Z,-5.23
2023-02-08T04:38:30.814Z,-5.23
2023-02-08T04:40:48.255Z,-5.23
2023-02-08T04:43:04.711Z,-5.21
2023-02-08T04:45:21.416Z,-5.22
2023-02-08T04:47:37.899Z,-5.22
2023-02-08T04:49:54.371Z,-5.22
2023-02-08T04:52:11.028Z,-5.26
2023-02-08T04:54:27.486Z,-5.28
2023-02-08T04:56:44.086Z,-5.28
2023-02-08T04:59:00.495Z,-5.30
2023-02-08T05:01:17.000Z,-5.30
2023-02-08T05:03:33.420Z,-5.32
2023-02-08T05:05:49.759Z,-5.31
2023-02-08T05:08:06.449Z,-5.32
2023-02-08T05:10:22.903Z,-5.32
2023-02-08T05:12:39.559Z,-5.35
2023-02-08T05:14:56.909Z,-5.35
2023-02-08T05:17:13.370Z,-5.36
2023-02-08T05:19:29.843Z,-5.38
2023-02-08T05:21:46.266Z,-5.38
2023-02-08T05:24:03.021Z,-5.38
2023-02-08T05:26:19.518Z,-5.39
2023-02-08T05:28:35.942Z,-5.38
2023-02-08T05:30:52.690Z,-5.39
2023-02-08T05:33:09.478Z,-5.39
2023-02-08T05:35:25.935Z,-5.40
2023-02-08T05:37:42.406Z,-5.40
2023-02-08T05:39:58.864Z,-5.43
2023-02-08T05:42:15.433Z,-5.43
2023-02-08T05:44:31.869Z,-5.47
2023-02-08T05:46:48.362Z,-5.47
2023-02-08T05:49:05.161Z,-5.48
2023-02-08T05:51:21.843Z,-5.48
2023-02-08T05:53:38.241Z,-5.50
2023-02-08T05:55:54.568Z,-5.56
2023-02-08T05:58:10.984Z,-5.57
2023-02-08T06:00:27.776Z,-5.58
2023-02-08T06:02:44.226Z,-5.59
2023-02-08T06:05:00.920Z,-5.57
2023-02-08T06:07:17.544Z,-5.55
2023-02-08T06:09:33.963Z,-5.54
2023-02-08T06:11:50.411Z,-5.54
2023-02-08T06:14:07.132Z,-5.56
2023-02-08T06:16:23.609Z,-5.57
2023-02-08T06:18:39.984Z,-5.61
2023-02-08T06:20:56.688Z,-5.62
2023-02-08T06:23:13.185Z,-5.65
2023-02-08T06:25:29.701Z,-5.67
2023-02-08T06:27:46.440Z,-5.68
2023-02-08T06:30:02.964Z,-5.69
2023-02-08T06:32:19.738Z,-5.70
2023-02-08T06:34:36.097Z,-5.70
2023-02-08T06:36:52.429Z,-5.67
2023-02-08T06:39:08.864Z,-5.67
2023-02-08T06:41:25.216Z,-5.69
2023-02-08T06:43:41.499Z,-5.69
2023-02-08T06:45:58.095Z,-5.69
2023-02-08T06:48:14.587Z,-5.67
2023-02-08T06:50:33.450Z,-5.70
2023-02-08T06:52:49.892Z,-5.70
2023-02-08T06:55:06.373Z,-5.71
2023-02-08T06:57:22.769Z,-5.73
2023-02-08T06:59:39.489Z,-5.72
2023-02-08T07:01:55.827Z,-5.74
2023-02-08T07:04:12.580Z,-5.75
2023-02-08T07:06:29.249Z,-5.77
2023-02-08T07:08:45.727Z,-5.78
2023-02-08T07:11:02.173Z,-5.76
2023-02-08T07:13:18.897Z,-5.70
2023-02-08T07:15:35.400Z,-5.68
2023-02-08T07:17:51.879Z,-5.69
2023-02-08T07:20:08.242Z,-5.71
2023-02-08T07:22:24.802Z,-5.70
2023-02-08T07:24:41.140Z,-5.66
2023-02-08T07:26:57.811Z,-5.66
2023-02-08T07:29:15.043Z,-5.65
2023-02-08T07:31:31.800Z,-5.65
2023-02-08T07:33:48.518Z,-5.61
2023-02-08T07:36:05.084Z,-5.61
2023-02-08T07:38:21.611Z,-5.59
2023-02-08T07:40:38.484Z,-5.59
2023-02-08T07:42:55.333Z,-5.54
2023-02-08T07:45:11.781Z,-5.55
2023-02-08T07:47:28.531Z,-5.53
2023-02-08T07:49:44.916Z,-5.52
2023-02-08T07:52:01.372Z,-5.51
2023-02-08T07:54:17.707Z,-5.48
2023-02-08T07:56:34.369Z,-5.46
2023-02-08T07:58:50.864Z,-5.44
2023-02-08T08:01:21.082Z,-5.42
2023-02-08T08:03:38.913Z,-5.43
2023-02-08T08:05:55.283Z,-5.43
2023-02-08T08:08:11.726Z,-5.39
2023-02-08T08:10:28.398Z,-5.39
2023-02-08T08:12:44.871Z,-5.34
2023-02-08T08:15:01.300Z,-5.32
2023-02-08T08:17:17.843Z,-5.30
2023-02-08T08:19:34.175Z,-5.26
2023-02-08T08:21:51.007Z,-5.21
2023-02-08T08:24:07.759Z,-5.17
2023-02-08T08:26:24.473Z,-5.12
2023-02-08T08:28:40.863Z,-5.07
2023-02-08T08:30:57.778Z,-5.03
2023-02-08T08:33:14.266Z,-4.94
2023-02-08T08:35:31.009Z,-4.80
2023-02-08T08:37:47.308Z,-4.64
2023-02-08T08:40:03.879Z,-4.46
2023-02-08T08:42:20.305Z,-4.29
2023-02-08T08:44:36.609Z,-4.11
2023-02-08T08:46:53.268Z,-4.03
2023-02-08T08:49:09.583Z,-3.92
2023-02-08T08:51:25.966Z,-3.77
2023-02-08T08:53:42.677Z,-3.60
2023-02-08T08:55:59.052Z,-3.45
2023-02-08T08:58:15.375Z,-3.29
2023-02-08T09:00:31.840Z,-3.09
2023-02-08T09:02:48.471Z,-2.97
2023-02-08T09:05:04.918Z,-2.87
2023-02-08T09:07:21.399Z,-2.70
2023-02-08T09:09:37.762Z,-2.57
2023-02-08T09:11:54.279Z,-2.41
2023-02-08T09:14:10.743Z,-2.27
2023-02-08T09:16:27.125Z,-2.13
2023-02-08T09:18:43.570Z,-1.89
2023-02-08T09:21:00.132Z,-1.74
2023-02-08T09:23:16.751Z,-1.52
2023-02-08T09:25:33.085Z,-1.29
2023-02-08T09:27:49.529Z,-1.06
2023-02-08T09:30:06.002Z,-0.76
2023-02-08T09:32:22.537Z,-0.54
2023-02-08T09:34:39.032Z,-0.34
2023-02-08T09:36:55.703Z,-0.11
2023-02-08T09:39:12.159Z,0.10
2023-02-08T09:41:28.779Z,0.30
2023-02-08T09:43:45.487Z,0.48
2023-02-08T09:46:02.009Z,0.67
2023-02-08T09:48:18.554Z,0.79
2023-02-08T09:50:35.366Z,0.91
2023-02-08T09:52:51.799Z,1.10
2023-02-08T09:55:08.187Z,1.19
2023-02-08T09:57:24.540Z,1.42
2023-02-08T09:59:40.958Z,1.66
2023-02-08T10:01:57.435Z,1.71
2023-02-08T10:04:14.170Z,1.85
2023-02-08T10:06:30.560Z,1.98
2023-02-08T10:08:46.998Z,2.18
2023-02-08T10:11:03.935Z,2.41
2023-02-08T10:13:21.474Z,2.49
2023-02-08T10:15:40.684Z,2.56
2023-02-08T10:17:58.201Z,2.66
2023-02-08T10:20:14.960Z,2.71
2023-02-08T10:22:31.646Z,2.75
2023-02-08T10:24:48.049Z,2.89
2023-02-08T10:27:04.800Z,2.81
2023-02-08T10:29:21.297Z,2.90
2023-02-08T10:31:37.949Z,3.04
2023-02-08T10:33:54.792Z,3.13
2023-02-08T10:36:11.225Z,3.25
2023-02-08T10:38:37.152Z,3.35
2023-02-08T10:41:01.082Z,3.22
2023-02-08T10:43:17.834Z,3.17
2023-02-08T10:45:34.271Z,3.18
2023-02-08T10:47:51.029Z,3.19
2023-02-08T10:50:07.482Z,3.40
2023-02-08T10:52:24.140Z,3.49
2023-02-08T10:54:41.661Z,3.54
2023-02-08T10:56:58.249Z,3.53
2023-02-08T10:59:14.660Z,3.77
2023-02-08T11:01:31.276Z,4.13
2023-02-08T11:03:47.720Z,4.28
2023-02-08T11:06:04.451Z,4.37
2023-02-08T11:08:20.916Z,4.51
2023-02-08T11:10:37.643Z,4.31
2023-02-08T11:12:54.300Z,4.40
2023-02-08T11:15:10.605Z,4.26
2023-02-08T11:17:26.963Z,4.35
2023-02-08T11:19:43.313Z,4.47
2023-02-08T11:22:00.026Z,4.41
2023-02-08T11:24:16.528Z,4.38
2023-02-08T11:26:33.270Z,4.64
2023-02-08T11:28:49.619Z,4.59
2023-02-08T11:31:06.038Z,4.30
2023-02-08T11:33:22.356Z,4.18
2023-02-08T11:35:38.838Z,4.10
2023-02-08T11:37:55.379Z,4.20
2023-02-08T11:40:11.885Z,4.28
2023-02-08T11:42:28.509Z,4.15
2023-02-08T11:44:44.911Z,4.10
2023-02-08T11:47:01.278Z,4.09
2023-02-08T11:49:17.993Z,4.00
2023-02-08T11:51:34.357Z,4.00
2023-02-08T11:53:50.788Z,4.05
2023-02-08T11:56:07.194Z,4.10
2023-02-08T11:58:23.528Z,4.11
2023-02-08T12:00:40.004Z,4.06
2023-02-08T12:02:56.730Z,4.08
2023-02-08T12:05:13.421Z,4.13
2023-02-08T12:07:30.182Z,4.13
2023-02-08T12:09:46.543Z,4.18
2023-02-08T12:12:03.300Z,4.23
2023-02-08T12:14:19.769Z,4.20
2023-02-08T12:16:36.278Z,4.07
2023-02-08T12:18:53.830Z,4.03
2023-02-08T12:21:10.596Z,3.98
2023-02-08T12:23:26.952Z,4.02
2023-02-08T12:25:43.642Z,4.09
2023-02-08T12:28:00.300Z,4.09
2023-02-08T12:30:16.737Z,4.15
2023-02-08T12:32:33.243Z,4.13
2023-02-08T12:34:49.964Z,4.20
2023-02-08T12:37:06.462Z,4.28
2023-02-08T12:39:25.375Z,4.45
2023-02-08T12:41:42.372Z,4.30
2023-02-08T12:43:58.792Z,4.23
2023-02-08T12:46:15.540Z,4.32
2023-02-08T12:48:32.220Z,4.25
2023-02-08T12:50:49.000Z,4.24
2023-02-08T12:53:05.425Z,4.18
2023-02-08T12:55:21.962Z,4.15
2023-02-08T12:57:38.345Z,4.20
2023-02-08T12:59:55.047Z,4.18
2023-02-08T13:02:11.876Z,4.20
2023-02-08T13:04:28.341Z,4.23
2023-02-08T13:06:44.780Z,4.17
2023-02-08T13:09:01.320Z,4.18
2023-02-08T13:11:20.310Z,4.22
2023-02-08T13:13:37.280Z,4.17
2023-02-08T13:15:53.633Z,4.24
2023-02-08T13:18:10.390Z,4.21
2023-02-08T13:20:26.833Z,4.18
2023-02-08T13:22:43.289Z,4.31
2023-02-08T13:25:08.579Z,4.22
2023-02-08T13:27:25.507Z,4.24
2023-02-08T13:29:42.441Z,4.28
2023-02-08T13:31:59.229Z,4.22
2023-02-08T13:34:15.982Z,4.26
2023-02-08T13:36:32.519Z,4.31
2023-02-08T13:38:49.009Z,4.12
2023-02-08T13:41:05.341Z,4.17
2023-02-08T13:43:34.298Z,4.26
2023-02-08T13:45:52.365Z,4.24
2023-02-08T13:48:09.178Z,4.22
2023-02-08T13:50:27.704Z,4.17
2023-02-08T13:52:48.381Z,4.20
2023-02-08T13:55:06.401Z,4.22
2023-02-08T13:57:22.773Z,4.24
2023-02-08T13:59:39.344Z,4.24
2023-02-08T14:01:55.924Z,4.30
2023-02-08T14:04:12.685Z,4.28
2023-02-08T14:06:29.133Z,4.27
2023-02-08T14:08:45.458Z,4.25
2023-02-08T14:11:02.950Z,4.26
2023-02-08T14:13:19.625Z,4.20
2023-02-08T14:15:36.113Z,4.19
2023-02-08T14:17:52.465Z,4.15
2023-02-08T14:20:09.184Z,4.13
2023-02-08T14:22:25.971Z,4.09
2023-02-08T14:24:42.713Z,4.06
2023-02-08T14:26:59.039Z,4.02
2023-02-08T14:29:15.372Z,3.92
2023-02-08T14:31:32.175Z,3.95
2023-02-08T14:33:48.988Z,3.87
2023-02-08T14:36:05.585Z,3.84
2023-02-08T14:38:22.021Z,3.87
2023-02-08T14:40:38.420Z,3.79
2023-02-08T14:42:54.898Z,3.70
2023-02-08T14:45:11.621Z,3.72
2023-02-08T14:47:28.322Z,3.67
2023-02-08T14:49:44.861Z,3.67
2023-02-08T14:52:01.600Z,3.71
2023-02-08T14:54:18.135Z,3.68
2023-02-08T14:56:34.918Z,3.66
2023-02-08T14:58:51.754Z,3.59
2023-02-08T15:01:08.486Z,3.58
2023-02-08T15:03:24.774Z,3.59
2023-02-08T15:05:41.476Z,3.62
2023-02-08T15:07:58.484Z,3.58
2023-02-08T15:10:14.957Z,3.56
2023-02-08T15:12:31.731Z,3.53
2023-02-08T15:14:48.481Z,3.49
2023-02-08T15:17:05.010Z,3.41
2023-02-08T15:19:21.785Z,3.33
2023-02-08T15:21:38.140Z,3.27
2023-02-08T15:23:54.527Z,3.22
2023-02-08T15:26:11.022Z,3.16
2023-02-08T15:28:27.683Z,3.13
2023-02-08T15:30:44.333Z,3.08
2023-02-08T15:33:01.003Z,3.03
2023-02-08T15:35:17.497Z,2.95
2023-02-08T15:37:33.825Z,2.87
2023-02-08T15:39:50.463Z,2.79
2023-02-08T15:42:06.757Z,2.74
2023-02-08T15:44:23.277Z,2.68
2023-02-08T15:46:39.714Z,2.54
2023-02-08T15:48:56.344Z,2.38
2023-02-08T15:51:12.994Z,2.14
2023-02-08T15:53:29.677Z,1.99
2023-02-08T15:55:46.123Z,1.87
2023-02-08T15:58:02.417Z,1.70
2023-02-08T16:00:18.933Z,1.60
2023-02-08T16:02:35.328Z,1.51
2023-02-08T16:04:51.973Z,1.45
2023-02-08T16:07:08.488Z,1.36
2023-02-08T16:09:25.075Z,1.25
2023-02-08T16:11:41.573Z,1.18
2023-02-08T16:13:58.067Z,1.05
2023-02-08T16:16:14.459Z,0.98
2023-02-08T16:18:30.811Z,0.89
2023-02-08T16:20:47.602Z,0.78
2023-02-08T16:23:04.192Z,0.75
2023-02-08T16:25:20.700Z,0.65
2023-02-08T16:27:36.963Z,0.52
2023-02-08T16:29:53.762Z,0.41
2023-02-08T16:32:13.606Z,0.29
2023-02-08T16:34:30.447Z,0.22
2023-02-08T16:36:47.139Z,0.09
2023-02-08T16:39:03.482Z,0.09
2023-02-08T16:41:20.243Z,0.00
2023-02-08T16:43:36.999Z,-0.08
2023-02-08T16:45:53.491Z,-0.16
2023-02-08T16:48:18.492Z,-0.25
2023-02-08T16:50:35.664Z,-0.32
2023-02-08T16:52:52.041Z,-0.36
2023-02-08T16:55:08.624Z,-0.41
2023-02-08T16:57:25.164Z,-0.48
2023-02-08T16:59:41.542Z,-0.50
2023-02-08T17:01:58.246Z,-0.53
2023-02-08T17:04:14.729Z,-0.58
2023-02-08T17:06:31.259Z,-0.64
2023-02-08T17:08:48.400Z,-0.68
2023-02-08T17:11:04.819Z,-0.67
2023-02-08T17:13:21.553Z,-0.72
2023-02-08T17:15:38.050Z,-0.77
2023-02-08T17:17:54.374Z,-0.83
2023-02-08T17:20:11.108Z,-0.87
2023-02-08T17:22:27.545Z,-0.93
2023-02-08T17:24:44.315Z,-0.99
2023-02-08T17:27:00.752Z,-1.05
2023-02-08T17:29:17.538Z,-1.08
2023-02-08T17:31:34.311Z,-1.13
2023-02-08T17:33:51.047Z,-1.16
2023-02-08T17:36:07.523Z,-1.22
2023-02-08T17:38:23.995Z,-1.27
2023-02-08T17:40:40.716Z,-1.31
2023-02-08T17:42:57.243Z,-1.37
2023-02-08T17:45:13.946Z,-1.38
2023-02-08T17:47:30.741Z,-1.42
2023-02-08T17:49:47.221Z,-1.46
2023-02-08T17:52:04.001Z,-1.49
2023-02-08T17:54:20.534Z,-1.53
2023-02-08T17:56:37.075Z,-1.57
2023-02-08T17:58:54.102Z,-1.61
2023-02-08T18:01:10.985Z,-1.62
2023-02-08T18:03:27.468Z,-1.68
2023-02-08T18:05:43.812Z,-1.70
2023-02-08T18:08:00.458Z,-1.74
2023-02-08T18:10:16.816Z,-1.79
2023-02-08T18:12:33.491Z,-1.81
2023-02-08T18:14:49.993Z,-1.79
2023-02-08T18:17:07.764Z,-1.83
2023-02-08T18:19:24.449Z,-1.87
2023-02-08T18:21:40.897Z,-1.89
2023-02-08T18:23:57.209Z,-1.91
2023-02-08T18:26:13.700Z,-1.95
2023-02-08T18:28:30.263Z,-1.99
2023-02-08T18:30:46.795Z,-2.02
2023-02-08T18:33:03.259Z,-2.06
2023-02-08T18:35:20.009Z,-2.10
2023-02-08T18:37:36.785Z,-2.13
2023-02-08T18:39:53.508Z,-2.15
2023-02-08T18:42:10.122Z,-2.18
2023-02-08T18:44:26.869Z,-2.21
2023-02-08T18:46:43.274Z,-2.26
2023-02-08T18:48:59.619Z,-2.29
2023-02-08T18:51:16.317Z,-2.33
2023-02-08T18:53:32.621Z,-2.35
2023-02-08T18:55:49.387Z,-2.36
2023-02-08T18:58:06.181Z,-2.40
2023-02-08T19:00:22.898Z,-2.43
2023-02-08T19:02:39.789Z,-2.45
2023-02-08T19:04:56.443Z,-2.48
2023-02-08T19:07:12.916Z,-2.49
2023-02-08T19:09:30.408Z,-2.53
2023-02-08T19:11:49.354Z,-2.58
2023-02-08T19:14:05.962Z,-2.59
2023-02-08T19:16:22.881Z,-2.59
2023-02-08T19:18:39.432Z,-2.59
2023-02-08T19:20:56.222Z,-2.60
2023-02-08T19:23:12.703Z,-2.62
2023-02-08T19:25:29.234Z,-2.65
2023-02-08T19:27:45.691Z,-2.69
2023-02-08T19:30:02.222Z,-2.72
2023-02-08T19:32:18.919Z,-2.75
2023-02-08T19:34:35.702Z,-2.78
2023-02-08T19:36:52.144Z,-2.80
2023-02-08T19:39:08.514Z,-2.82
2023-02-08T19:41:24.928Z,-2.84
2023-02-08T19:43:41.306Z,-2.85
2023-02-08T19:45:57.674Z,-2.88
2023-02-08T19:48:14.367Z,-2.91
2023-02-08T19:50:31.089Z,-2.93
2023-02-08T19:52:47.461Z,-2.97
2023-02-08T19:55:03.894Z,-2.99
2023-02-08T19:57:20.257Z,-3.03
2023-02-08T19:59:36.977Z,-3.06
2023-02-08T20:01:53.481Z,-3.06
2023-02-08T20:04:09.999Z,-3.03
2023-02-08T20:06:26.387Z,-3.04
2023-02-08T20:08:42.888Z,-3.04
2023-02-08T20:10:59.546Z,-3.07
2023-02-08T20:13:15.969Z,-3.12
2023-02-08T20:15:32.445Z,-3.13
2023-02-08T20:17:48.993Z,-3.16
2023-02-08T20:20:05.687Z,-3.18
2023-02-08T20:22:22.030Z,-3.21
2023-02-08T20:24:38.760Z,-3.24
2023-02-08T20:26:55.435Z,-3.27
2023-02-08T20:29:11.805Z,-3.28
2023-02-08T20:31:28.635Z,-3.30
2023-02-08T20:33:45.099Z,-3.33
2023-02-08T20:36:01.814Z,-3.36
2023-02-08T20:38:18.553Z,-3.40
2023-02-08T20:40:34.862Z,-3.42
2023-02-08T20:42:51.136Z,-3.44
2023-02-08T20:45:07.625Z,-3.46
2023-02-08T20:47:24.292Z,-3.49
2023-02-08T20:49:40.639Z,-3.50
2023-02-08T20:51:57.354Z,-3.53
2023-02-08T20:54:14.070Z,-3.54
2023-02-08T20:56:30.348Z,-3.57
2023-02-08T20:58:46.931Z,-3.58
2023-02-08T21:01:03.585Z,-3.61
2023-02-08T21:03:19.966Z,-3.63
2023-02-08T21:05:36.314Z,-3.66
2023-02-08T21:07:52.589Z,-3.69
2023-02-08T21:10:09.236Z,-3.73
2023-02-08T21:12:25.894Z,-3.75
2023-02-08T21:14:42.614Z,-3.76
2023-02-08T21:16:59.428Z,-3.76
2023-02-08T21:19:16.166Z,-3.76
2023-02-08T21:21:32.501Z,-3.75
2023-02-08T21:23:49.105Z,-3.75
2023-02-08T21:26:05.738Z,-3.78
2023-02-08T21:28:22.334Z,-3.80
2023-02-08T21:30:39.098Z,-3.83
2023-02-08T21:32:55.496Z,-3.86
2023-02-08T21:35:11.765Z,-3.89
2023-02-08T21:37:28.168Z,-3.93
2023-02-08T21:39:46.552Z,-3.94
2023-02-08T21:42:03.749Z,-3.95
2023-02-08T21:44:20.066Z,-3.97
2023-02-08T21:46:36.705Z,-3.98
2023-02-08T21:48:53.172Z,-4.03
2023-02-08T21:51:09.578Z,-4.03
2023-02-08T21:53:26.288Z,-4.05
2023-02-08T21:55:42.974Z,-4.12
2023-02-08T21:57:59.447Z,-4.15
2023-02-08T22:00:15.851Z,-4.14
2023-02-08T22:02:33.247Z,-4.13
2023-02-08T22:04:49.545Z,-4.13
2023-02-08T22:07:06.237Z,-4.16
2023-02-08T22:09:22.909Z,-4.18
2023-02-08T22:11:39.199Z,-4.21
2023-02-08T22:13:55.518Z,-4.24
2023-02-08T22:16:11.961Z,-4.25
2023-02-08T22:18:28.438Z,-4.28
2023-02-08T22:20:45.372Z,-4.30
2023-02-08T22:23:02.177Z,-4.34
2023-02-08T22:25:18.906Z,-4.36
2023-02-08T22:27:36.324Z,-4.38
2023-02-08T22:29:53.091Z,-4.39
2023-02-08T22:34:51.915Z,-4.43
2023-02-08T22:37:08.600Z,-4.46
2023-02-08T22:39:24.925Z,-4.48
2023-02-08T22:41:41.260Z,-4.48
2023-02-08T22:43:57.804Z,-4.49
2023-02-08T22:46:14.169Z,-4.50
2023-02-08T22:48:30.914Z,-4.54
2023-02-08T22:50:47.637Z,-4.57
2023-02-08T22:53:04.060Z,-4.55
2023-02-08T22:55:20.508Z,-4.54
2023-02-08T22:57:36.753Z,-4.52
2023-02-08T22:59:53.260Z,-4.53
2023-02-08T23:02:09.797Z,-4.57
2023-02-08T23:04:26.455Z,-4.60
2023-02-08T23:06:42.944Z,-4.65
2023-02-08T23:08:59.381Z,-4.65
2023-02-08T23:11:15.844Z,-4.68
2023-02-08T23:13:32.504Z,-4.69
2023-02-08T23:15:49.222Z,-4.68
2023-02-08T23:18:05.719Z,-4.68
2023-02-08T23:20:22.067Z,-4.69
2023-02-08T23:22:38.511Z,-4.69
2023-02-08T23:24:55.026Z,-4.73
2023-02-08T23:27:11.345Z,-4.71
2023-02-08T23:29:27.800Z,-4.73
2023-02-08T23:31:44.313Z,-4.75
2023-02-08T23:34:00.985Z,-4.78
2023-02-08T23:36:17.421Z,-4.82
2023-02-08T23:38:33.897Z,-4.86
2023-02-08T23:40:50.493Z,-4.86
2023-02-08T23:43:07.108Z,-4.86
2023-02-08T23:45:23.845Z,-4.88
2023-02-08T23:47:40.571Z,-4.91
2023-02-08T23:49:57.255Z,-4.92
2023-02-08T23:52:13.520Z,-4.93
2023-02-08T23:54:29.821Z,-4.92
2023-02-08T23:56:46.584Z,-4.96
2023-02-08T23:59:03.020Z,-4.94
